KMIC/MIC METAR and TAF weather

Enter ICAO airport designator
Station Type Date Time Source
KMIC METAR 2020/01/21 14:53 UTC NOAA

KMIC 211453Z 17010KT 10SM CLR M15/M18 A3035 RMK AO2 SLP301 T11501183 56030


Station Type Date Time Source
KMIC Decoded METAR 2020/01/21 14:53 UTC NOAA

CRYSTAL AIRPORT, MN, United States (KMIC) 45-04N 093-21W 265M
Jan 21, 2020 - 09:53 AM EST / 2020.01.21 1453 UTC
Wind: from the S (170 degrees) at 12 MPH (10 KT):0
Visibility: 10 mile(s):0
Sky conditions: clear
Temperature: 5.0 F (-15.0 C)
Windchill: -11 F (-24 C):2
Dew Point: -0.9 F (-18.3 C)
Relative Humidity: 75%
Pressure (altimeter): 30.35 in. Hg (1027 hPa)
Pressure tendency: 0.09 inches (3.0 hPa) lower than three hours ago
ob: KMIC 211453Z 17010KT 10SM CLR M15/M18 A3035 RMK AO2 SLP301 T11501183 56030
cycle: 15

Station Type Date Time Source
KMIC TAF UTC NOAA

Error!

Example: see airport list